createdAt,value
2022-10-11T00:01:46.350Z,13.54
2022-10-11T00:04:18.294Z,13.52
2022-10-11T00:06:50.306Z,13.51
2022-10-11T00:09:22.210Z,13.48
2022-10-11T00:11:57.703Z,13.46
2022-10-11T00:14:29.649Z,13.47
2022-10-11T00:17:01.647Z,13.45
2022-10-11T00:19:34.223Z,13.44
2022-10-11T00:22:06.101Z,13.44
2022-10-11T00:24:38.026Z,13.43
2022-10-11T00:27:09.940Z,13.40
2022-10-11T00:29:41.872Z,13.39
2022-10-11T00:32:13.764Z,13.35
2022-10-11T00:34:45.715Z,13.32
2022-10-11T00:37:18.566Z,13.30
2022-10-11T00:39:50.533Z,13.26
2022-10-11T00:42:22.937Z,13.24
2022-10-11T00:45:26.761Z,13.17
2022-10-11T00:48:07.485Z,13.08
2022-10-11T00:50:39.659Z,13.19
2022-10-11T00:53:12.829Z,13.16
2022-10-11T00:55:53.110Z,13.12
2022-10-11T00:58:25.207Z,13.09
2022-10-11T01:00:57.705Z,13.08
2022-10-11T01:03:33.089Z,13.02
2022-10-11T01:06:05.663Z,12.98
2022-10-11T01:08:38.811Z,12.99
2022-10-11T01:11:17.308Z,12.95
2022-10-11T01:14:16.300Z,12.92
2022-10-11T01:17:19.033Z,12.86
2022-10-11T01:20:30.856Z,12.82
2022-10-11T01:23:49.931Z,12.80
2022-10-11T01:27:16.156Z,12.78
2022-10-11T01:30:27.122Z,12.71
2022-10-11T01:33:45.027Z,12.67
2022-10-11T01:36:33.701Z,12.69
2022-10-11T01:39:16.462Z,12.66
2022-10-11T01:41:53.643Z,12.67
2022-10-11T01:44:27.075Z,12.64
2022-10-11T01:46:58.929Z,12.65
2022-10-11T01:49:30.952Z,12.61
2022-10-11T01:52:07.128Z,12.58
2022-10-11T01:55:08.077Z,12.56
2022-10-11T01:57:44.651Z,12.51
2022-10-11T02:00:22.560Z,12.50
2022-10-11T02:03:36.627Z,12.44
2022-10-11T02:06:35.498Z,12.44
2022-10-11T02:09:26.271Z,12.44
2022-10-11T02:12:06.591Z,12.41
2022-10-11T02:14:49.432Z,12.40
2022-10-11T02:17:29.589Z,12.40
2022-10-11T02:20:08.612Z,12.37
2022-10-11T02:22:48.235Z,12.35
2022-10-11T02:25:30.641Z,12.34
2022-10-11T02:28:10.617Z,12.31
2022-10-11T02:30:46.877Z,12.29
2022-10-11T02:33:26.593Z,12.24
2022-10-11T02:36:09.644Z,12.20
2022-10-11T02:38:51.164Z,12.13
2022-10-11T02:41:34.243Z,12.18
2022-10-11T02:44:33.600Z,12.14
2022-10-11T02:47:07.648Z,12.17
2022-10-11T02:49:39.842Z,12.15
2022-10-11T02:52:11.780Z,12.12
2022-10-11T02:54:43.705Z,12.10
2022-10-11T02:57:15.757Z,12.06
2022-10-11T02:59:47.708Z,12.03
2022-10-11T03:02:19.587Z,11.99
2022-10-11T03:04:51.473Z,11.98
2022-10-11T03:07:23.514Z,11.97
2022-10-11T03:09:55.371Z,11.93
2022-10-11T03:12:27.299Z,11.95
2022-10-11T03:14:59.204Z,11.96
2022-10-11T03:17:36.711Z,11.86
2022-10-11T03:20:09.846Z,11.92
2022-10-11T03:22:41.773Z,11.91
2022-10-11T03:25:14.145Z,11.92
2022-10-11T03:27:46.127Z,11.91
2022-10-11T03:30:18.567Z,11.90
2022-10-11T03:32:50.505Z,11.89
2022-10-11T03:35:22.395Z,11.87
2022-10-11T03:37:54.346Z,11.87
2022-10-11T03:40:26.231Z,11.85
2022-10-11T03:42:58.216Z,11.81
2022-10-11T03:45:30.076Z,11.79
2022-10-11T03:48:02.427Z,11.79
2022-10-11T03:50:34.483Z,11.76
2022-10-11T03:53:08.001Z,11.71
2022-10-11T03:55:41.113Z,11.71
2022-10-11T03:58:13.057Z,11.67
2022-10-11T04:00:45.025Z,11.65
2022-10-11T04:03:16.934Z,11.64
2022-10-11T04:05:49.230Z,11.63
2022-10-11T04:08:21.137Z,11.63
2022-10-11T04:10:53.513Z,11.62
2022-10-11T04:13:25.492Z,11.51
2022-10-11T04:15:57.369Z,11.61
2022-10-11T04:18:29.270Z,11.58
2022-10-11T04:21:01.205Z,11.53
2022-10-11T04:23:33.732Z,11.51
2022-10-11T04:26:08.107Z,11.51
2022-10-11T04:28:40.314Z,11.51
2022-10-11T04:31:12.299Z,11.50
2022-10-11T04:33:44.340Z,11.47
2022-10-11T04:36:16.512Z,11.45
2022-10-11T04:38:49.162Z,11.41
2022-10-11T04:41:21.128Z,11.40
2022-10-11T04:43:53.214Z,11.42
2022-10-11T04:46:25.191Z,11.40
2022-10-11T04:48:57.182Z,11.37
2022-10-11T04:51:29.360Z,11.37
2022-10-11T04:54:01.330Z,11.33
2022-10-11T04:56:33.476Z,11.26
2022-10-11T04:59:05.474Z,11.29
2022-10-11T05:01:37.446Z,11.27
2022-10-11T05:04:09.453Z,11.25
2022-10-11T05:06:41.342Z,11.25
2022-10-11T05:09:13.328Z,11.22
2022-10-11T05:11:45.207Z,11.22
2022-10-11T05:14:17.205Z,11.19
2022-10-11T05:16:49.121Z,11.19
2022-10-11T05:19:21.085Z,11.15
2022-10-11T05:21:53.113Z,11.12
2022-10-11T05:24:25.041Z,11.08
2022-10-11T05:27:02.331Z,11.04
2022-10-11T05:29:35.177Z,11.10
2022-10-11T05:32:07.106Z,11.07
2022-10-11T05:34:38.991Z,11.03
2022-10-11T05:37:10.966Z,10.90
2022-10-11T05:39:42.875Z,10.88
2022-10-11T05:42:15.521Z,10.87
2022-10-11T05:44:47.440Z,10.91
2022-10-11T05:47:19.304Z,10.93
2022-10-11T05:49:51.321Z,10.95
2022-10-11T05:52:23.338Z,10.95
2022-10-11T05:54:55.252Z,10.94
2022-10-11T05:57:27.307Z,10.94
2022-10-11T05:59:59.181Z,10.94
2022-10-11T06:02:31.159Z,10.92
2022-10-11T06:05:03.313Z,10.89
2022-10-11T06:07:37.531Z,10.90
2022-10-11T06:10:10.011Z,10.92
2022-10-11T06:12:41.914Z,10.90
2022-10-11T06:15:14.573Z,10.92
2022-10-11T06:17:47.610Z,10.88
2022-10-11T06:20:19.918Z,10.92
2022-10-11T06:22:51.861Z,10.92
2022-10-11T06:25:23.713Z,10.91
2022-10-11T06:27:55.695Z,10.94
2022-10-11T06:30:27.703Z,10.93
2022-10-11T06:33:04.451Z,10.95
2022-10-11T06:35:36.832Z,10.97
2022-10-11T06:38:08.726Z,10.98
2022-10-11T06:40:40.592Z,11.01
2022-10-11T06:43:12.481Z,11.04
2022-10-11T06:45:44.611Z,11.05
2022-10-11T06:48:16.474Z,11.08
2022-10-11T06:50:59.678Z,11.09
2022-10-11T06:53:32.164Z,11.15
2022-10-11T06:56:07.920Z,11.21
2022-10-11T06:58:40.744Z,11.26
2022-10-11T07:01:20.638Z,11.28
2022-10-11T07:03:55.324Z,11.33
2022-10-11T07:06:30.313Z,11.38
2022-10-11T07:09:02.267Z,11.44
2022-10-11T07:11:35.052Z,11.51
2022-10-11T07:14:07.974Z,11.54
2022-10-11T07:16:40.012Z,11.62
2022-10-11T07:19:11.980Z,11.69
2022-10-11T07:21:43.899Z,11.81
2022-10-11T07:24:15.829Z,11.92
2022-10-11T07:26:47.771Z,12.03
2022-10-11T07:29:19.715Z,12.14
2022-10-11T07:31:51.600Z,12.24
2022-10-11T07:34:23.505Z,12.47
2022-10-11T07:36:55.450Z,12.67
2022-10-11T07:39:27.493Z,12.85
2022-10-11T07:41:59.739Z,13.00
2022-10-11T07:44:31.747Z,13.16
2022-10-11T07:47:07.723Z,13.25
2022-10-11T07:49:42.288Z,13.42
2022-10-11T07:52:14.283Z,13.52
2022-10-11T07:54:49.269Z,13.70
2022-10-11T07:57:21.290Z,13.90
2022-10-11T07:59:53.176Z,14.02
2022-10-11T08:02:25.096Z,14.02
2022-10-11T08:04:57.105Z,14.22
2022-10-11T08:07:29.940Z,14.38
2022-10-11T08:10:02.440Z,14.50
2022-10-11T08:12:34.622Z,14.63
2022-10-11T08:15:07.269Z,14.80
2022-10-11T08:17:39.214Z,14.95
2022-10-11T08:20:11.333Z,14.96
2022-10-11T08:22:43.317Z,15.26
2022-10-11T08:25:15.278Z,15.33
2022-10-11T08:27:47.215Z,15.46
2022-10-11T08:30:19.414Z,15.56
2022-10-11T08:32:51.298Z,15.70
2022-10-11T08:35:23.220Z,15.82
2022-10-11T08:37:55.182Z,15.92
2022-10-11T08:40:30.381Z,16.05
2022-10-11T08:43:12.081Z,16.15
2022-10-11T08:45:53.561Z,16.28
2022-10-11T08:48:45.774Z,16.37
2022-10-11T08:51:47.375Z,16.45
2022-10-11T08:54:51.730Z,16.53
2022-10-11T08:57:28.575Z,16.61
2022-10-11T09:00:07.449Z,16.84
2022-10-11T09:03:08.415Z,16.91
2022-10-11T09:06:13.436Z,16.96
2022-10-11T09:09:06.113Z,17.07
2022-10-11T09:12:14.136Z,17.17
2022-10-11T09:15:17.291Z,17.32
2022-10-11T09:18:28.037Z,17.39
2022-10-11T09:21:18.180Z,17.54
2022-10-11T09:24:17.215Z,17.51
2022-10-11T09:26:59.756Z,17.63
2022-10-11T09:29:49.862Z,17.69
2022-10-11T09:32:23.225Z,17.79
2022-10-11T09:35:15.066Z,17.79
2022-10-11T09:38:00.819Z,17.81
2022-10-11T09:40:47.798Z,17.76
2022-10-11T09:43:19.988Z,17.87
2022-10-11T09:45:51.919Z,17.99
2022-10-11T09:48:32.799Z,18.08
2022-10-11T09:51:17.109Z,18.17
2022-10-11T09:53:58.519Z,18.20
2022-10-11T09:56:33.782Z,18.27
2022-10-11T09:59:32.472Z,18.33
2022-10-11T10:02:13.527Z,18.42
2022-10-11T10:05:16.732Z,18.50
2022-10-11T10:08:01.590Z,18.67
2022-10-11T10:10:43.656Z,18.81
2022-10-11T10:13:29.666Z,18.89
2022-10-11T10:16:04.275Z,19.00
2022-10-11T10:18:50.365Z,19.09
2022-10-11T10:21:35.710Z,19.07
2022-10-11T10:24:38.177Z,18.94
2022-10-11T10:27:21.858Z,19.13
2022-10-11T10:30:08.133Z,19.26
2022-10-11T10:33:05.958Z,19.34
2022-10-11T10:36:06.210Z,19.38
2022-10-11T10:39:05.199Z,19.35
2022-10-11T10:41:37.274Z,19.37
2022-10-11T10:44:11.322Z,19.30
2022-10-11T10:47:20.699Z,19.25
2022-10-11T10:50:18.869Z,19.38
2022-10-11T10:53:16.313Z,19.44
2022-10-11T10:56:08.612Z,19.42
2022-10-11T10:58:56.042Z,19.43
2022-10-11T11:01:32.813Z,19.53
2022-10-11T11:04:33.427Z,19.67
2022-10-11T11:07:22.014Z,19.87
2022-10-11T11:10:18.353Z,20.02
2022-10-11T11:13:17.070Z,20.09
2022-10-11T11:16:07.294Z,19.98
2022-10-11T11:19:02.144Z,20.07
2022-10-11T11:21:47.907Z,20.17
2022-10-11T11:25:03.698Z,20.28
2022-10-11T11:28:25.937Z,20.40
2022-10-11T11:31:21.411Z,20.48
2022-10-11T11:33:58.977Z,20.46
2022-10-11T11:36:56.304Z,20.37
2022-10-11T11:39:37.886Z,20.48
2022-10-11T11:42:46.602Z,20.59
2022-10-11T11:45:45.175Z,20.67
2022-10-11T11:48:25.974Z,20.71
2022-10-11T11:51:20.333Z,20.67
2022-10-11T11:54:16.518Z,20.67
2022-10-11T11:57:01.700Z,20.70
2022-10-11T11:59:36.614Z,20.74
2022-10-11T12:02:45.095Z,20.64
2022-10-11T12:05:23.963Z,20.61
2022-10-11T12:08:08.365Z,20.59
2022-10-11T12:11:02.398Z,20.59
2022-10-11T12:13:40.736Z,20.69
2022-10-11T12:16:16.091Z,20.76
2022-10-11T12:18:59.972Z,20.80
2022-10-11T12:21:39.898Z,20.90
2022-10-11T12:24:20.988Z,21.05
2022-10-11T12:26:58.597Z,21.21
2022-10-11T12:29:49.839Z,21.33
2022-10-11T12:32:37.028Z,21.45
2022-10-11T12:35:30.841Z,21.47
2022-10-11T12:38:30.670Z,21.51
2022-10-11T12:41:13.310Z,21.66
2022-10-11T12:43:47.975Z,21.71
2022-10-11T12:46:29.077Z,21.70
2022-10-11T12:49:21.577Z,21.82
2022-10-11T12:52:31.247Z,21.93
2022-10-11T12:55:37.471Z,22.04
2022-10-11T12:58:26.161Z,22.22
2022-10-11T13:00:58.068Z,22.43
2022-10-11T13:04:00.405Z,22.54
2022-10-11T13:06:38.334Z,22.63
2022-10-11T13:09:10.166Z,22.59
2022-10-11T13:11:55.564Z,22.47
2022-10-11T13:14:30.912Z,22.36
2022-10-11T13:17:02.861Z,22.22
2022-10-11T13:19:38.026Z,21.89
2022-10-11T13:22:20.728Z,21.61
2022-10-11T13:24:57.908Z,21.40
2022-10-11T13:27:29.911Z,21.24
2022-10-11T13:30:08.671Z,21.01
2022-10-11T13:32:42.722Z,20.91
2022-10-11T13:35:28.754Z,20.77
2022-10-11T13:38:01.973Z,20.87
2022-10-11T13:40:35.490Z,20.91
2022-10-11T13:43:08.588Z,20.82
2022-10-11T13:45:41.424Z,20.77
2022-10-11T13:48:16.436Z,20.86
2022-10-11T13:51:17.870Z,21.00
2022-10-11T13:54:13.846Z,21.38
2022-10-11T13:56:51.359Z,21.75
2022-10-11T13:59:27.472Z,22.15
2022-10-11T14:02:01.863Z,22.38
2022-10-11T14:04:41.784Z,22.57
2022-10-11T14:07:37.467Z,22.78
2022-10-11T14:10:22.275Z,23.08
2022-10-11T14:13:06.519Z,23.22
2022-10-11T14:15:38.807Z,23.37
2022-10-11T14:18:48.761Z,23.31
2022-10-11T14:21:20.645Z,23.61
2022-10-11T14:23:56.572Z,23.77
2022-10-11T14:26:38.628Z,23.84
2022-10-11T14:29:33.041Z,23.94
2022-10-11T14:32:16.139Z,24.10
2022-10-11T14:34:49.486Z,24.25
2022-10-11T14:37:22.515Z,24.31
2022-10-11T14:39:54.553Z,24.30
2022-10-11T14:42:26.479Z,24.29
2022-10-11T14:44:58.373Z,24.21
2022-10-11T14:47:30.296Z,24.26
2022-10-11T14:50:34.289Z,24.32
2022-10-11T14:53:08.950Z,24.53
2022-10-11T14:55:42.620Z,24.65
2022-10-11T14:58:16.687Z,24.65
2022-10-11T15:00:48.621Z,24.68
2022-10-11T15:03:20.593Z,24.73
2022-10-11T15:05:52.590Z,24.87
2022-10-11T15:08:24.508Z,24.97
2022-10-11T15:10:56.611Z,25.01
2022-10-11T15:13:28.514Z,25.08
2022-10-11T15:16:00.477Z,25.20
2022-10-11T15:18:32.428Z,25.22
2022-10-11T15:21:04.548Z,25.25
2022-10-11T15:23:36.479Z,25.27
2022-10-11T15:26:14.253Z,25.24
2022-10-11T15:28:48.036Z,25.26
2022-10-11T15:31:20.863Z,25.34
2022-10-11T15:33:52.874Z,25.33
2022-10-11T15:36:25.157Z,25.38
2022-10-11T15:38:57.148Z,25.39
2022-10-11T15:41:29.055Z,25.35
2022-10-11T15:44:00.939Z,25.36
2022-10-11T15:46:32.941Z,25.32
2022-10-11T15:49:13.640Z,25.28
2022-10-11T15:51:46.224Z,25.16
2022-10-11T15:54:18.103Z,25.24
2022-10-11T15:56:50.028Z,25.16
2022-10-11T15:59:21.922Z,25.08
2022-10-11T16:01:53.891Z,24.97
2022-10-11T16:04:25.922Z,24.84
2022-10-11T16:06:57.830Z,24.54
2022-10-11T16:09:29.746Z,24.15
2022-10-11T16:12:01.677Z,23.84
2022-10-11T16:14:33.632Z,23.51
2022-10-11T16:17:05.649Z,23.21
2022-10-11T16:19:37.521Z,22.94
2022-10-11T16:22:09.401Z,22.70
2022-10-11T16:24:41.296Z,22.45
2022-10-11T16:27:16.558Z,22.23
2022-10-11T16:29:50.952Z,22.02
2022-10-11T16:32:24.315Z,21.82
2022-10-11T16:34:56.232Z,21.62
2022-10-11T16:37:28.125Z,21.47
2022-10-11T16:40:00.279Z,21.32
2022-10-11T16:42:32.630Z,21.15
2022-10-11T16:45:06.003Z,20.99
2022-10-11T16:47:38.058Z,20.89
2022-10-11T16:50:11.355Z,20.75
2022-10-11T16:52:43.303Z,20.64
2022-10-11T16:55:15.241Z,20.52
2022-10-11T16:57:47.222Z,20.38
2022-10-11T17:00:19.282Z,20.33
2022-10-11T17:02:51.399Z,20.09
2022-10-11T17:05:23.273Z,20.11
2022-10-11T17:07:55.177Z,20.04
2022-10-11T17:10:39.295Z,19.93
2022-10-11T17:13:11.949Z,19.68
2022-10-11T17:15:43.883Z,19.74
2022-10-11T17:18:17.116Z,19.53
2022-10-11T17:20:49.175Z,19.60
2022-10-11T17:23:21.075Z,19.55
2022-10-11T17:25:53.000Z,19.48
2022-10-11T17:28:24.992Z,19.41
2022-10-11T17:30:58.602Z,19.35
2022-10-11T17:33:31.822Z,19.26
2022-10-11T17:36:25.031Z,19.13
2022-10-11T17:38:57.740Z,19.12
2022-10-11T17:41:32.194Z,19.07
2022-10-11T17:44:05.276Z,19.01
2022-10-11T17:46:38.425Z,18.95
2022-10-11T17:49:12.613Z,18.84
2022-10-11T17:51:44.817Z,18.83
2022-10-11T17:54:16.798Z,18.74
2022-10-11T17:56:49.750Z,18.69
2022-10-11T17:59:22.214Z,18.59
2022-10-11T18:01:54.530Z,18.62
2022-10-11T18:04:30.159Z,18.52
2022-10-11T18:07:02.056Z,18.55
2022-10-11T18:09:34.942Z,18.49
2022-10-11T18:12:07.192Z,18.43
2022-10-11T18:14:39.065Z,18.39
2022-10-11T18:17:11.166Z,18.36
2022-10-11T18:19:43.080Z,18.30
2022-10-11T18:22:15.016Z,18.23
2022-10-11T18:24:47.960Z,18.16
2022-10-11T18:27:19.926Z,18.15
2022-10-11T18:29:51.802Z,18.10
2022-10-11T18:32:23.774Z,18.06
2022-10-11T18:34:57.592Z,18.01
2022-10-11T18:37:30.006Z,17.96
2022-10-11T18:40:01.947Z,17.90
2022-10-11T18:42:33.836Z,17.84
2022-10-11T18:45:06.765Z,17.81
2022-10-11T18:47:38.657Z,17.74
2022-10-11T18:50:10.680Z,17.70
2022-10-11T18:52:44.629Z,17.65
2022-10-11T18:55:16.953Z,17.60
2022-10-11T18:57:48.899Z,17.56
2022-10-11T19:00:39.702Z,17.50
2022-10-11T19:03:12.869Z,17.47
2022-10-11T19:05:44.825Z,17.42
2022-10-11T19:08:16.756Z,17.38
2022-10-11T19:10:48.606Z,17.34
2022-10-11T19:13:20.513Z,17.19
2022-10-11T19:15:52.443Z,17.27
2022-10-11T19:18:25.480Z,17.20
2022-10-11T19:21:05.440Z,17.14
2022-10-11T19:23:41.369Z,17.05
2022-10-11T19:26:26.465Z,17.07
2022-10-11T19:29:06.727Z,16.97
2022-10-11T19:31:46.964Z,16.94
2022-10-11T19:34:20.953Z,16.96
2022-10-11T19:36:57.295Z,16.92
2022-10-11T19:39:29.889Z,16.90
2022-10-11T19:42:01.857Z,16.88
2022-10-11T19:44:38.665Z,16.82
2022-10-11T19:47:11.709Z,16.64
2022-10-11T19:49:43.613Z,16.72
2022-10-11T19:52:15.466Z,16.62
2022-10-11T19:54:47.378Z,16.64
2022-10-11T19:57:19.263Z,16.61
2022-10-11T19:59:51.243Z,16.57
2022-10-11T20:02:23.082Z,16.51
2022-10-11T20:04:55.041Z,16.49
2022-10-11T20:07:27.050Z,16.40
2022-10-11T20:09:58.963Z,16.39
2022-10-11T20:12:31.301Z,16.29
2022-10-11T20:15:04.064Z,16.30
2022-10-11T20:17:48.279Z,16.25
2022-10-11T20:20:20.242Z,16.22
2022-10-11T20:22:53.539Z,16.13
2022-10-11T20:25:25.425Z,16.14
2022-10-11T20:27:57.326Z,16.10
2022-10-11T20:30:29.193Z,16.07
2022-10-11T20:33:01.094Z,16.03
2022-10-11T20:35:32.946Z,15.99
2022-10-11T20:38:04.800Z,15.96
2022-10-11T20:40:40.909Z,15.90
2022-10-11T20:43:14.230Z,15.89
2022-10-11T20:45:47.411Z,15.85
2022-10-11T20:48:19.277Z,15.83
2022-10-11T20:50:51.554Z,15.82
2022-10-11T20:53:24.332Z,15.79
2022-10-11T20:55:57.015Z,15.72
2022-10-11T20:58:28.897Z,15.72
2022-10-11T21:01:00.851Z,15.68
2022-10-11T21:03:32.764Z,15.63
2022-10-11T21:06:05.572Z,15.57
2022-10-11T21:08:38.826Z,15.52
2022-10-11T21:11:11.871Z,15.54
2022-10-11T21:13:43.899Z,15.50
2022-10-11T21:16:16.488Z,15.47
2022-10-11T21:18:54.301Z,15.38
2022-10-11T21:21:28.543Z,15.37
2022-10-11T21:24:05.483Z,15.34
2022-10-11T21:26:37.395Z,15.30
2022-10-11T21:29:09.291Z,15.25
2022-10-11T21:31:41.227Z,15.20
2022-10-11T21:34:13.090Z,15.13
2022-10-11T21:36:45.127Z,15.13
2022-10-11T21:39:17.098Z,15.11
2022-10-11T21:41:48.974Z,15.10
2022-10-11T21:44:20.850Z,15.06
2022-10-11T21:47:08.195Z,15.04
2022-10-11T21:49:40.137Z,15.04
2022-10-11T21:52:12.257Z,15.00
2022-10-11T21:54:44.144Z,14.95
2022-10-11T21:57:16.072Z,14.90
2022-10-11T21:59:47.960Z,14.88
2022-10-11T22:02:19.802Z,14.86
2022-10-11T22:04:51.671Z,14.81
2022-10-11T22:07:23.534Z,14.78
2022-10-11T22:09:55.433Z,14.61
2022-10-11T22:12:27.375Z,14.57
2022-10-11T22:14:59.223Z,14.63
2022-10-11T22:17:31.122Z,14.61
2022-10-11T22:20:03.182Z,14.58
2022-10-11T22:22:35.296Z,14.54
2022-10-11T22:25:08.268Z,14.50
2022-10-11T22:27:40.112Z,14.48
2022-10-11T22:30:12.250Z,14.43
2022-10-11T22:32:44.102Z,14.39
2022-10-11T22:35:16.041Z,14.31
2022-10-11T22:37:48.047Z,14.31
2022-10-11T22:40:20.456Z,14.27
2022-10-11T22:42:52.380Z,14.21
2022-10-11T22:45:24.443Z,14.22
2022-10-11T22:47:56.318Z,14.19
2022-10-11T22:50:28.276Z,14.16
2022-10-11T22:53:00.212Z,14.12
2022-10-11T22:55:32.268Z,14.08
2022-10-11T22:58:04.321Z,14.04
2022-10-11T23:00:37.029Z,14.04
2022-10-11T23:03:12.874Z,14.02
2022-10-11T23:05:57.058Z,13.97
2022-10-11T23:08:29.105Z,13.99
2022-10-11T23:11:07.842Z,13.93
2022-10-11T23:13:39.811Z,13.92
2022-10-11T23:16:13.349Z,13.92
2022-10-11T23:18:45.299Z,13.88
2022-10-11T23:21:17.233Z,13.89
2022-10-11T23:23:52.879Z,13.83
2022-10-11T23:26:24.829Z,13.80
2022-10-11T23:28:57.280Z,13.77
2022-10-11T23:31:29.213Z,13.75
2022-10-11T23:34:01.118Z,13.73
2022-10-11T23:36:32.999Z,13.70
2022-10-11T23:39:05.053Z,13.68
2022-10-11T23:41:36.950Z,13.62
2022-10-11T23:44:09.985Z,13.66
2022-10-11T23:46:41.913Z,13.64
2022-10-11T23:49:14.176Z,13.63
2022-10-11T23:51:46.062Z,13.60
2022-10-11T23:54:17.983Z,13.54
2022-10-11T23:56:49.894Z,13.59
2022-10-11T23:59:21.816Z,13.54
